logo
App data

Dashy Square

Dash, jump and fly your way through epic levels with rhythm-based gameplay!
Store | Hub | SteamDB | Site
Developer: Kastriot Sulejmani, Logan Gerrol Publisher: KasSanity
Genre: Action Games, Indie
Languages: English, French, Italian, Spanish - Spain, Portuguese - Brazil, German, Korean, Russian, Simplified Chinese
Tags: Indie (32), Action (30), Music (20), Difficult (18), Great Soundtrack (16), Memes (9), Platformer (9), Pixel Graphics (7), Rhythm (5), 2D (5)
Category: Single-player, Steam Achievements, Steam Trading Cards, Partial Controller Support, Steam Cloud, Includes level editor
Release date: Apr 25, 2016
Price: $2.99
Old userscore: 89% Owners: 0 .. 20,000
Followers: 458
Peak concurrent players yesterday: 1

Steam Spy is still in beta, so expect major bugs.

Owners data:

Access restricted.

This feature is only available to users with special access rights. Sorry.

If you want to proceed, you need to register or log in first and then back Steam Spy on Patreon. Look for Indie or Pro pledge.

Don't forget to use the same email as on Steam Spy!

If you've recently backed Steam Spy on Patreon, please note, that it might take around 15 minutes for your access rights to sync. In most cases you'll need to re-login on Steam Spy too.

Audience in 2 weeks:

Access restricted.

This feature is only available to users with special access rights. Sorry.

If you want to proceed, you need to register or log in first and then back Steam Spy on Patreon. Look for Indie or Pro pledge.

Don't forget to use the same email as on Steam Spy!

If you've recently backed Steam Spy on Patreon, please note, that it might take around 15 minutes for your access rights to sync. In most cases you'll need to re-login on Steam Spy too.

Peak daily concurrent players:

CCU data courtesy of SteamDB. Used with permission.

Hourly concurrent players:

Daily Twitch stats:

Hourly Twitch stats:

Followers over time

Access restricted.

This feature is only available to users with special access rights. Sorry.

If you want to proceed, you need to register or log in first and then back Steam Spy on Patreon. Look for Indie or Pro pledge.

Don't forget to use the same email as on Steam Spy!

If you've recently backed Steam Spy on Patreon, please note, that it might take around 15 minutes for your access rights to sync. In most cases you'll need to re-login on Steam Spy too.

Views for top 50 videos on YouTube for this game:

Games similar to this one:

# Game Release date
Price
Score rank
(Userscore / Metascore)
Owners
Players
Playtime (Median)
1 Too Angry to Space Aug 8, 2016 $4.99N/A (N/A)0 .. 20,0000%00:00 (00:00)
2 ORCS May 20, 2016 $0.49N/A (N/A)20,000 .. 50,0000%00:00 (00:00)
3 You Deserve Aug 19, 2016 $0.99N/A (N/A)20,000 .. 50,0000%00:00 (00:00)
4 Star Drifter Jun 1, 2016 $0.99N/A (N/A)200,000 .. 500,0000%00:00 (00:00)
5 Dinosaur Forest May 17, 2017 $1.99N/A (N/A)20,000 .. 50,0000%00:00 (00:00)
6 Call Of The Mighty Warriors Mar 1, 2019 $0.99N/A (N/A)50,000 .. 100,0000%00:00 (00:00)
7 Showdown Adventure Sep 23, 2016 $2.99N/A (N/A)20,000 .. 50,0000%00:00 (00:00)
8 Karma Miwa Aug 12, 2016 $0.99N/A (N/A)20,000 .. 50,0000%00:00 (00:00)
9 Joana's Life Sep 1, 2016 $5.99N/A (N/A)50,000 .. 100,0000%00:00 (00:00)
10 Super Duper Party Pooper Jun 6, 2016 $0.99N/A (N/A/40%)100,000 .. 200,0000%00:00 (00:00)
11 It Comes Around - A Kinetic Novel Sep 29, 2016 $2.99N/A (N/A)20,000 .. 50,0000%00:00 (00:00)
12 DashBored Jun 13, 2016 $4.99N/A (N/A)20,000 .. 50,0000%00:00 (00:00)
13 Starship Annihilator Sep 2, 2016 $0.99N/A (N/A)20,000 .. 50,0000%00:00 (00:00)
14 Robot Legions Reborn Jul 19, 2016 $2.99N/A (N/A)20,000 .. 50,0000%00:00 (00:00)
15 mr.President Prologue Episode Sep 20, 2016 $0.99N/A (N/A)20,000 .. 50,0000%00:00 (00:00)
16 Bohemian Killing Jul 21, 2016 $12.99N/A (N/A/55%)20,000 .. 50,0000%00:00 (00:00)
17 AIRHEART - Tales of broken Wings Jul 23, 2018 $14.99N/A (N/A/62%)20,000 .. 50,0000%00:00 (00:00)
18 Curses 'N Chaos Aug 18, 2015 $9.99N/A (N/A)20,000 .. 50,0000%00:00 (00:00)
19 iO Dec 5, 2014 $4.99N/A (N/A)20,000 .. 50,0000%00:00 (00:00)
20 Back to Bed Aug 6, 2014 $5.99N/A (N/A)1,000,000 .. 2,000,0000%00:00 (00:00)
21 Horizon Shift May 29, 2015 $1.49N/A (N/A)100,000 .. 200,0000%00:00 (00:00)
22 OTTTD Aug 6, 2014 $7.99N/A (N/A)50,000 .. 100,0000%00:00 (00:00)
23 The Deer God Feb 27, 2015 $14.99N/A (N/A/59%)20,000 .. 50,0000%00:00 (00:00)
24 The Masterplan Jun 4, 2015 $19.99N/A (N/A/68%)100,000 .. 200,0000%00:00 (00:00)
25 Phoenix Force Nov 13, 2014 $0.99N/A (N/A)50,000 .. 100,0000%00:00 (00:00)
26 Velocibox Sep 8, 2014 $4.99N/A (N/A)50,000 .. 100,00025%00:02 (00:02)
27 Marvin's Mittens Dec 17, 2014 $5.99N/A (N/A)20,000 .. 50,0000%00:00 (00:00)
28 Squishy the Suicidal Pig Oct 23, 2014 $5.99N/A (N/A)200,000 .. 500,0000%00:00 (00:00)
29 Chronicles of a Dark Lord: Episode 1 Tides of Fate Complete Dec 19, 2014 N/AN/A (N/A)50,000 .. 100,0000%00:00 (00:00)
30 Great Permutator Sep 15, 2014 $1.04N/A (N/A)20,000 .. 50,0000%00:00 (00:00)
31 Bermuda Mar 17, 2015 $2.99N/A (N/A)50,000 .. 100,0000%00:00 (00:00)
32 Chariot Nov 12, 2014 $1.49N/A (N/A/76%)50,000 .. 100,0000%00:00 (00:00)
33 Ukrainian Ninja Dec 23, 2014 FreeN/A (N/A)20,000 .. 50,0000%00:00 (00:00)
34 Ninja Pizza Girl Sep 30, 2015 $6.99N/A (N/A/82%)50,000 .. 100,0000%00:00 (00:00)
35 Child Phobia: Nightcoming Fears Dec 20, 2016 $1.99N/A (N/A)50,000 .. 100,0000%00:00 (00:00)
36 BoomTown! Deluxe Oct 14, 2016 $1.99N/A (N/A)20,000 .. 50,0000%00:00 (00:00)
37 Mistwood Heroes Dec 30, 2016 $0.99N/A (N/A)20,000 .. 50,0000%00:00 (00:00)
38 Pixel Gladiator Sep 8, 2017 $4.99N/A (N/A)20,000 .. 50,0000%00:00 (00:00)
39 Three Kingdoms The Last Warlord May 26, 2017 $15.29N/A (N/A)50,000 .. 100,0000%00:00 (00:00)
40 Snake Pass Mar 28, 2017 $19.99N/A (N/A/71%)200,000 .. 500,0000%00:00 (00:00)
41 GORN Jul 18, 2019 $19.99N/A (N/A/85%)200,000 .. 500,0003.45%00:32 (00:10)
42 Wayout Nov 4, 2016 $0.49N/A (N/A)50,000 .. 100,0000%00:00 (00:00)
43 Guns of Icarus Alliance Mar 31, 2017 $4.99N/A (N/A)100,000 .. 200,0000.58%00:04 (00:01)
44 Zolg Dec 2, 2016 $0.99N/A (N/A)50,000 .. 100,0000%00:00 (00:00)
45 The Archotek Project Apr 28, 2017 $0.99N/A (N/A)200,000 .. 500,0000%00:00 (00:00)
46 Witch It Oct 22, 2020 $9.99N/A (N/A)200,000 .. 500,0002.86%102:39 (34:13)
47 Introvert Quest Mar 15, 2017 $2.49N/A (N/A)100,000 .. 200,0000%00:00 (00:00)
48 Distant Space Dec 20, 2016 $0.99N/A (N/A)100,000 .. 200,0000%00:00 (00:00)
49 TIMEframe Jul 7, 2015 $5.99N/A (N/A)50,000 .. 100,0000%00:00 (00:00)
50 Scribble Space Jun 1, 2015 $1.99N/A (N/A)20,000 .. 50,0000%00:00 (00:00)
51 Tomb of Tyrants Jun 25, 2015 $7.99N/A (N/A)20,000 .. 50,0000%00:00 (00:00)
52 Porcunipine May 21, 2015 $9.99N/A (N/A)20,000 .. 50,0000%00:00 (00:00)
53 On A Roll 3D Feb 12, 2015 $3.99N/A (N/A)50,000 .. 100,0000%00:00 (00:00)
54 Star Horizon May 28, 2015 $9.99N/A (N/A)0 .. 20,0000%00:00 (00:00)
55 Glorkian Warrior: The Trials Of Glork Mar 24, 2015 $1.35N/A (N/A)20,000 .. 50,0000%00:00 (00:00)
56 NEO AQUARIUM - The King of Crustaceans - Jun 8, 2015 $8.99N/A (N/A)50,000 .. 100,0000%00:00 (00:00)
57 Countless Rooms of Death Feb 20, 2014 $0.99N/A (N/A)20,000 .. 50,0000%00:00 (00:00)
58 Home is Where One Starts... May 12, 2015 $2.99N/A (N/A)20,000 .. 50,0000%00:00 (00:00)
59 Shipwreck Feb 25, 2014 $2.99N/A (N/A)0 .. 20,0000%00:00 (00:00)
60 Beyond Eyes Aug 11, 2015 $14.99N/A (N/A/60%)100,000 .. 200,0000%00:00 (00:00)
61 Disillusions Manga Horror Apr 6, 2013 $0.99N/A (N/A)20,000 .. 50,0000%00:00 (00:00)
62 Inside My Radio May 11, 2015 $14.99N/A (N/A/68%)20,000 .. 50,0000%00:00 (00:00)
63 The Cursed Forest Feb 26, 2019 $13.99N/A (N/A)0 .. 20,0000%00:00 (00:00)
64 Gryphon Knight Epic Aug 20, 2015 $12.99N/A (N/A/55%)20,000 .. 50,0000%00:00 (00:00)
65 Rats - Time is running out! Aug 19, 2015 $4.99N/A (N/A)20,000 .. 50,0000%00:00 (00:00)
66 Unmechanical Aug 8, 2012 $9.99N/A (N/A/74%)100,000 .. 200,0000%00:00 (00:00)
67 Critter Crunch Sep 11, 2012 $6.99N/A (N/A)20,000 .. 50,0000%00:00 (00:00)
68 Party of Sin Dec 13, 2012 $5.99N/A (N/A)50,000 .. 100,0000%00:00 (00:00)
69 BIT.TRIP BEAT Nov 2, 2010 $9.99N/A (N/A)200,000 .. 500,0000%00:00 (00:00)
70 Home Jun 1, 2012 $4.99N/A (N/A/69%)200,000 .. 500,0000%00:00 (00:00)
71 Super Splatters Jun 26, 2013 N/AN/A (N/A/73%)20,000 .. 50,0000%00:00 (00:00)
72 Ultratron Mar 18, 2013 $9.99N/A (N/A)50,000 .. 100,0000%00:00 (00:00)
73 Ms. Splosion Man Apr 3, 2013 $9.99N/A (N/A)50,000 .. 100,0000%00:00 (00:00)
74 Cargo Commander Nov 1, 2012 $2.99N/A (N/A)100,000 .. 200,0000%00:00 (00:00)
75 Titan Attacks! Feb 3, 2012 $9.99N/A (N/A)0 .. 20,0000%00:00 (00:00)
76 Puddle Nov 9, 2012 $7.99N/A (N/A)100,000 .. 200,0000%00:00 (00:00)
77 BIT.TRIP CORE Oct 2, 2012 $9.99N/A (N/A)20,000 .. 50,0000%00:00 (00:00)
78 Retro/Grade Mar 20, 2013 $9.99N/A (N/A)50,000 .. 100,0000%00:00 (00:00)
79 Tales From Space: Mutant Blobs Attack Aug 15, 2012 $9.99N/A (N/A/83%)100,000 .. 200,0000%00:00 (00:00)
80 Papo & Yo Apr 18, 2013 $14.99N/A (N/A/70%)200,000 .. 500,0000%00:00 (00:00)
81 All Zombies Must Die!: Scorepocalypse Apr 19, 2012 $4.99N/A (N/A)20,000 .. 50,0000%00:00 (00:00)
82 Bad Hotel Oct 16, 2013 $4.99N/A (N/A)50,000 .. 100,0000%00:00 (00:00)
83 Kiai Resonance Apr 23, 2015 $4.99N/A (N/A)20,000 .. 50,0000%00:00 (00:00)
84 Western Press Apr 21, 2016 $4.99N/A (N/A)0 .. 20,0000%00:00 (00:00)
85 Spellsworn Mar 13, 2018 FreeN/A (N/A)200,000 .. 500,0000%00:00 (00:00)
86 Sky Rogue Aug 24, 2017 $19.99N/A (N/A)50,000 .. 100,0000%00:00 (00:00)
87 Luna Sky Oct 2, 2015 $12.99N/A (N/A)50,000 .. 100,0000%00:00 (00:00)
88 Action Alien Jun 26, 2015 $4.99N/A (N/A)50,000 .. 100,0000%00:00 (00:00)
89 Interstellar Rift Sep 24, 2020 $19.99N/A (N/A)50,000 .. 100,0000%00:00 (00:00)
90 8Bit Fiesta - Party Game Sep 30, 2016 FreeN/A (N/A)0 .. 20,0000%00:00 (00:00)
91 BRAWL Aug 13, 2015 $14.99N/A (N/A)0 .. 20,0000%00:00 (00:00)
92 Dead In Bermuda Aug 27, 2015 $14.99N/A (N/A)20,000 .. 50,0000%00:00 (00:00)
93 AdvertCity Jun 5, 2015 $19.99N/A (N/A)0 .. 20,0000%00:00 (00:00)
94 Aviary Attorney Dec 21, 2015 $14.99N/A (N/A/77%)50,000 .. 100,0000%00:00 (00:00)
95 Polyball Dec 1, 2017 $14.99N/A (N/A)20,000 .. 50,0000%00:00 (00:00)
96 none Nov 4, 2015 N/AN/A (N/A)20,000 .. 50,0000%00:00 (00:00)
97 Pizza Express Jun 25, 2015 $6.99N/A (N/A)20,000 .. 50,0000%00:00 (00:00)
98 Stray Cat Crossing Aug 28, 2015 $2.99N/A (N/A)20,000 .. 50,0000%00:00 (00:00)
99 Monument Jun 5, 2015 $0.99N/A (N/A)20,000 .. 50,0000%00:00 (00:00)
100 1,000 Heads Among the Trees Dec 11, 2015 $4.99N/A (N/A)100,000 .. 200,0000%00:00 (00:00)
101 Super Trench Attack 2 Nov 6, 2015 $2.99N/A (N/A)20,000 .. 50,0000%00:00 (00:00)
102 The Purring Quest Nov 12, 2015 $9.99N/A (N/A)100,000 .. 200,0000%00:00 (00:00)
103 Earth Overclocked Dec 4, 2015 $4.99N/A (N/A)20,000 .. 50,0000%00:00 (00:00)
104 Perraw - FPS Clone War Alpha Jan 29, 2016 $0.99N/A (N/A)0 .. 20,0000%00:00 (00:00)
105 Redemption: Eternal Quest Aug 28, 2015 $4.99N/A (N/A)100,000 .. 200,0000%00:00 (00:00)
106 Days Under Custody Nov 23, 2015 $4.99N/A (N/A)20,000 .. 50,0000%00:00 (00:00)
107 Angry Arrows Aug 12, 2015 $4.99N/A (N/A)20,000 .. 50,0000%00:00 (00:00)
108 Heavy Gear Assault Feb 10, 2017 $39.99N/A (N/A)20,000 .. 50,0000%00:00 (00:00)
109 Void Invaders Aug 14, 2015 $2.99N/A (N/A)20,000 .. 50,0000%00:00 (00:00)
110 Cosmic Leap Mar 17, 2016 $0.99N/A (N/A)20,000 .. 50,0000%00:00 (00:00)
111 Wild Island Quest Sep 4, 2015 $1.99N/A (N/A)50,000 .. 100,0000%00:00 (00:00)
112 Godus Wars Feb 3, 2016 $14.99N/A (N/A)50,000 .. 100,0000%00:00 (00:00)
113 Kitchen Simulator 2015 Sep 2, 2015 $0.99N/A (N/A)50,000 .. 100,0000%00:00 (00:00)
114 Bell Ringer Mar 18, 2016 $6.99N/A (N/A)200,000 .. 500,0000%00:00 (00:00)
115 Press X to Not Die Oct 6, 2017 $2.99N/A (N/A)100,000 .. 200,0000%00:00 (00:00)
116 Space Moth DX Jan 22, 2016 $4.99N/A (N/A)20,000 .. 50,0000%00:00 (00:00)
117 Godus N/AN/A (N/A)50,000 .. 100,0000%00:00 (00:00)
118 Signal Ops Apr 2, 2013 $9.99N/A (N/A/61%)20,000 .. 50,0000%00:00 (00:00)
119 Element4l May 24, 2013 $8.99N/A (N/A/77%)50,000 .. 100,0000%00:00 (00:00)
120 Survivor Squad Nov 8, 2013 $2.99N/A (N/A)100,000 .. 200,0007.14%01:37 (00:32)
121 Super Puzzle Platformer Deluxe May 24, 2013 $7.99N/A (N/A)20,000 .. 50,0000%00:00 (00:00)
122 Montague's Mount Nov 19, 2013 $4.99N/A (N/A/39%)20,000 .. 50,0000%00:00 (00:00)
123 The Novelist Dec 10, 2013 $4.99N/A (N/A/66%)100,000 .. 200,0000%00:00 (00:00)
124 STARWHAL Sep 29, 2014 $11.99N/A (N/A)50,000 .. 100,0000%00:00 (00:00)
125 Knytt Underground Oct 25, 2013 $6.99N/A (N/A)50,000 .. 100,0000%00:00 (00:00)
126 A-Men Jan 25, 2014 $9.99N/A (N/A)0 .. 20,0000%00:00 (00:00)
127 Omegalodon Mar 9, 2012 $9.99N/A (N/A)20,000 .. 50,0000%00:00 (00:00)
128 Imagine Me Mar 14, 2014 $2.99N/A (N/A)20,000 .. 50,0000%00:00 (00:00)
129 Solar Flux Oct 24, 2013 $9.99N/A (N/A)100,000 .. 200,0000%00:00 (00:00)
130 Montas Mar 24, 2014 $9.99N/A (N/A)0 .. 20,0000%00:00 (00:00)
131 FOTONICA Nov 6, 2014 $14.99N/A (N/A/71%)50,000 .. 100,0000%00:00 (00:00)
132 Jones On Fire Mar 14, 2013 $2.99N/A (N/A)0 .. 20,0000%00:00 (00:00)
133 Escape Goat 2 Mar 24, 2014 $9.99N/A (N/A/76%)50,000 .. 100,0000%00:00 (00:00)
134 Cube Land Arena Mar 8, 2019 $0.49N/A (N/A)50,000 .. 100,0000%00:00 (00:00)
135 PERFECT ANGLE: The puzzle game based on optical illusions Dec 22, 2015 $9.99N/A (N/A)50,000 .. 100,0000%00:00 (00:00)
136 Hero Quest: Tower Conflict Apr 13, 2016 $0.99N/A (N/A)200,000 .. 500,0000%00:00 (00:00)
137 IMSCARED Feb 3, 2016 $3.99N/A (N/A)20,000 .. 50,0000%00:00 (00:00)
138 CrazyCars3D Jun 14, 2016 $2.99N/A (N/A)50,000 .. 100,0000%00:00 (00:00)
139 Doodle Kingdom Jun 9, 2016 $8.99N/A (N/A)50,000 .. 100,0000%00:00 (00:00)
140 Mainlining Jan 26, 2017 $12.99N/A (N/A/73%)20,000 .. 50,0000%00:00 (00:00)
141 10 Second Ninja X Jul 19, 2016 $9.99N/A (N/A)200,000 .. 500,0000.8%00:16 (00:05)
142 OPUS: The Day We Found Earth Apr 22, 2016 $8.99N/A (N/A)100,000 .. 200,0000%00:00 (00:00)
143 Empire of the Gods Jan 27, 2016 $0.99N/A (N/A)50,000 .. 100,0000%00:00 (00:00)
144 NORTH Apr 27, 2016 $0.49N/A (N/A)200,000 .. 500,0000%00:00 (00:00)
145 Mindless Running Feb 18, 2016 $0.99N/A (N/A)20,000 .. 50,0000%00:00 (00:00)
146 上帝之城 I:监狱帝国 [City of God I - Prison Empire] Jul 9, 2018 $18.99N/A (N/A)50,000 .. 100,0000%00:00 (00:00)
147 Mimpi Dreams Mar 22, 2016 FreeN/A (N/A)20,000 .. 50,0000%00:00 (00:00)
148 Angel Express [Tokkyu Tenshi] Jul 15, 2016 $9.99N/A (N/A)0 .. 20,0000%00:00 (00:00)
149 Share May 3, 2016 $0.99N/A (N/A)20,000 .. 50,0000%00:00 (00:00)
150 Scanner Sombre Apr 26, 2017 $5.99N/A (N/A/67%)100,000 .. 200,0000%00:00 (00:00)
151 10 Second Ninja Mar 5, 2014 $1.99N/A (N/A/72%)50,000 .. 100,0000%00:00 (00:00)
152 Uriel's Chasm Sep 12, 2014 $4.99N/A (N/A)200,000 .. 500,0000%00:00 (00:00)
153 Labyrinthine Dreams May 26, 2015 $1.99N/A (N/A)20,000 .. 50,0000%00:00 (00:00)
154 Road Not Taken Aug 5, 2014 $14.99N/A (N/A/75%)50,000 .. 100,0000%00:00 (00:00)
155 Pulstar Jun 11, 2014 $1.99N/A (N/A)20,000 .. 50,0000%00:00 (00:00)
156 Dreaming Sarah Mar 12, 2015 $5.99N/A (N/A)200,000 .. 500,0000%00:00 (00:00)
157 T.E.C. 3001 Apr 10, 2014 N/AN/A (N/A)20,000 .. 50,0000%00:00 (00:00)
158 Frederic: Resurrection of Music May 16, 2014 $2.99N/A (N/A)100,000 .. 200,0000%00:00 (00:00)
159 Munin Jun 10, 2014 $4.99N/A (N/A/68%)200,000 .. 500,0000%00:00 (00:00)
160 Frederic: Evil Strikes Back May 23, 2014 $7.99N/A (N/A)50,000 .. 100,0000%00:00 (00:00)
161 Rabbit Hole 3D: Steam Edition Apr 25, 2014 $2.99N/A (N/A)50,000 .. 100,0000%00:00 (00:00)
162 Concursion Jun 6, 2014 $4.99N/A (N/A/66%)20,000 .. 50,0000%00:00 (00:00)
163 ReignMaker Apr 16, 2014 $14.99N/A (N/A)50,000 .. 100,0000%00:00 (00:00)
164 Iron Fisticle Sep 16, 2014 $8.99N/A (N/A)20,000 .. 50,0000%00:00 (00:00)
165 Volt Apr 14, 2014 $0.99N/A (N/A)100,000 .. 200,0000%00:00 (00:00)
166 Fancy Skulls Jun 16, 2014 $8.99N/A (N/A)20,000 .. 50,0000%00:00 (00:00)
167 Three Dead Zed Jul 7, 2014 $5.99N/A (N/A)50,000 .. 100,0000%00:00 (00:00)

Tags over time:

Access restricted.

This feature is only available to users with special access rights. Sorry.

If you want to proceed, you need to register or log in first and then back Steam Spy on Patreon. Look for Indie or Pro pledge.

Don't forget to use the same email as on Steam Spy!

If you've recently backed Steam Spy on Patreon, please note, that it might take around 15 minutes for your access rights to sync. In most cases you'll need to re-login on Steam Spy too.

Owners of this game also own:

Access restricted.

This feature is only available to users with special access rights. Sorry.

If you want to proceed, you need to register or log in first and then back Steam Spy on Patreon. Look for Indie or Pro pledge.

Don't forget to use the same email as on Steam Spy!

If you've recently backed Steam Spy on Patreon, please note, that it might take around 15 minutes for your access rights to sync. In most cases you'll need to re-login on Steam Spy too.

Playtime distribution:

Access restricted.

This feature is only available to users with special access rights. Sorry.

If you want to proceed, you need to register or log in first and then back Steam Spy on Patreon. Look for Indie or Pro pledge.

Don't forget to use the same email as on Steam Spy!

If you've recently backed Steam Spy on Patreon, please note, that it might take around 15 minutes for your access rights to sync. In most cases you'll need to re-login on Steam Spy too.

Playtime (2 weeks):

Access restricted.

This feature is only available to users with special access rights. Sorry.

If you want to proceed, you need to register or log in first and then back Steam Spy on Patreon. Look for Indie or Pro pledge.

Don't forget to use the same email as on Steam Spy!

If you've recently backed Steam Spy on Patreon, please note, that it might take around 15 minutes for your access rights to sync. In most cases you'll need to re-login on Steam Spy too.

User reviews:

Login required.

Please register or log in to see this information.